aviador You're here:

LEJR Decoded Metar

JEREZ in SPAIN
Report Time2018-06-18 15:30:00
UTC Time2018-06-18 15:30:54
Flight Rules vfr VFR
Wind170° at 08 kt
W.Decomp.*RWY 20: 7.1 kt HW 3.8 kt LCW
W.Rank170° ranks 12
Current wind is above 170° avg. (6.6)
Visibility9999 m
Phenomena:N/A
Clouds:N/A
Expected CloudBase > 8,400 ft AGL from Temp-Dew spread
CeilingNone
Temp34°C (ISA +19)
Dew Point13°C (28% RH)
Heat Index33.0°C
AAT32.0°C
QNH1015 hPa
Density Alt2,415 ft
Elevation98 ft
Report Wrong Elevation
Raw Report
METAR LEJR 181530Z 17008KT 120V230 CAVOK 34/13 Q1015=

Extra information for LEJR:More info

Metar Taf Metar & Taf Last 4 Metars F.Rules Stats Wind Profile Meteogram Temp Stats Airport Information Weather charts Add Link Nearby VenuesMetar ALERT Operation Metar Decoded Social comments